Time;durP1;ratioP1;P1;durP2;ratioP2;P2;SDS_P1;SDS_P2;PMS_P1;PMS_P2;Temp;Humidity;BMP_temperature;BMP_pressure;BME280_temperature;BME280_humidity;BME280_pressure;Samples;Min_cycle;Max_cycle;Signal;HPM_P1;HPM_P2
2023/04/15 00:01:28;;;;;;;5.28;3.05;;;10.80;1.00;;;;;;5117585;28;20024;-59
2023/04/15 00:03:55;;;;;;;5.95;3.28;;;10.80;1.00;;;;;;5118180;28;20092;-59
2023/04/15 00:06:21;;;;;;;4.95;3.25;;;10.80;1.00;;;;;;5121362;28;20165;-59
2023/04/15 00:08:49;;;;;;;5.28;3.45;;;10.80;1.00;;;;;;5103649;28;20042;-59
2023/04/15 00:11:15;;;;;;;6.60;3.33;;;10.80;1.00;;;;;;5121670;28;20302;-59
2023/04/15 00:13:42;;;;;;;5.88;3.00;;;10.80;1.00;;;;;;5121205;28;20043;-59
2023/04/15 00:16:09;;;;;;;5.30;3.47;;;10.80;1.00;;;;;;5121780;28;20037;-59
2023/04/15 00:18:36;;;;;;;5.28;3.35;;;10.80;1.00;;;;;;5121108;28;20028;-58
2023/04/15 00:21:03;;;;;;;8.20;3.95;;;10.90;1.00;;;;;;5121091;28;20039;-59
2023/04/15 00:23:29;;;;;;;6.60;3.55;;;10.80;1.00;;;;;;5120968;28;20039;-59
2023/04/15 00:25:55;;;;;;;4.85;3.13;;;10.90;1.00;;;;;;5121053;28;20039;-59
2023/04/15 00:28:21;;;;;;;6.15;3.10;;;10.90;1.00;;;;;;5121220;28;20050;-58
2023/04/15 00:30:47;;;;;;;4.95;3.10;;;11.00;1.00;;;;;;5120941;28;20406;-59
2023/04/15 00:33:15;;;;;;;8.43;3.50;;;11.00;1.00;;;;;;5120740;28;20059;-59
2023/04/15 00:35:41;;;;;;;7.03;3.60;;;11.00;1.00;;;;;;5121155;28;20027;-59
2023/04/15 00:38:07;;;;;;;5.95;3.78;;;11.00;1.00;;;;;;5121413;28;20051;-59
2023/04/15 00:40:34;;;;;;;5.47;3.20;;;11.10;1.00;;;;;;5120727;28;20032;-60
2023/04/15 00:43:00;;;;;;;7.57;3.60;;;11.10;1.00;;;;;;5120653;28;20147;-60
2023/04/15 00:45:27;;;;;;;6.60;3.42;;;11.10;1.00;;;;;;5120987;28;20303;-59
2023/04/15 00:47:54;;;;;;;5.50;3.42;;;11.10;1.00;;;;;;5120963;28;20038;-59
2023/04/15 00:50:20;;;;;;;8.10;3.53;;;11.20;1.00;;;;;;5119716;28;20092;-59
2023/04/15 00:52:46;;;;;;;6.82;3.78;;;11.20;1.00;;;;;;5120362;28;20035;-59
2023/04/15 00:55:12;;;;;;;6.13;3.30;;;11.10;1.00;;;;;;5119701;28;20023;-59
2023/04/15 00:57:39;;;;;;;6.40;3.55;;;11.10;1.00;;;;;;5120364;28;20027;-59
2023/04/15 01:00:07;;;;;;;7.82;3.95;;;11.10;1.10;;;;;;5119694;28;20061;-59
2023/04/15 01:02:35;;;;;;;4.25;3.60;;;11.10;1.00;;;;;;5120295;28;20306;-59
2023/04/15 01:05:02;;;;;;;5.70;3.50;;;11.00;2.50;;;;;;5120293;28;20024;-59
2023/04/15 01:07:29;;;;;;;6.20;3.80;;;11.00;1.00;;;;;;5120107;28;20039;-59
2023/04/15 01:09:55;;;;;;;4.70;3.70;;;11.00;1.00;;;;;;5120463;28;20031;-59
2023/04/15 01:12:23;;;;;;;7.28;3.72;;;11.00;3.30;;;;;;5120072;28;20031;-59
2023/04/15 01:14:49;;;;;;;5.93;3.88;;;11.00;2.80;;;;;;5119581;28;20395;-59
2023/04/15 01:17:16;;;;;;;6.28;3.90;;;11.00;7.50;;;;;;5120533;28;20111;-59
2023/04/15 01:19:42;;;;;;;7.18;3.80;;;11.10;6.80;;;;;;5119990;28;20031;-58
2023/04/15 01:22:08;;;;;;;5.55;3.78;;;11.10;12.50;;;;;;5120220;28;20141;-58
2023/04/15 01:24:37;;;;;;;7.07;3.75;;;11.20;11.60;;;;;;5119848;28;20344;-59
2023/04/15 01:27:04;;;;;;;6.95;3.88;;;11.10;10.70;;;;;;5119879;28;20035;-59
2023/04/15 01:29:31;;;;;;;5.32;3.60;;;11.10;11.20;;;;;;5119713;28;20406;-58
2023/04/15 01:31:57;;;;;;;7.68;4.18;;;11.00;20.70;;;;;;5119663;28;20028;-58
2023/04/15 01:34:25;;;;;;;6.43;4.72;;;11.00;23.10;;;;;;5118948;28;20031;-58
2023/04/15 01:36:52;;;;;;;8.80;4.75;;;11.00;21.40;;;;;;5119712;28;20031;-58
2023/04/15 01:39:20;;;;;;;6.65;3.90;;;11.10;19.80;;;;;;5119542;28;20442;-60
2023/04/15 01:41:46;;;;;;;6.22;3.88;;;11.00;15.80;;;;;;5118610;28;20044;-59
2023/04/15 01:44:12;;;;;;;7.55;4.28;;;11.00;14.70;;;;;;5118815;28;20391;-60
2023/04/15 01:46:38;;;;;;;7.15;4.18;;;10.90;3.50;;;;;;5119434;28;20016;-59
2023/04/15 01:49:05;;;;;;;6.05;3.92;;;10.90;5.40;;;;;;5118565;28;20410;-59
2023/04/15 01:51:31;;;;;;;6.43;4.15;;;10.90;7.30;;;;;;5118659;28;20023;-59
2023/04/15 01:53:57;;;;;;;6.75;4.00;;;10.90;14.10;;;;;;5119204;28;20051;-59
2023/04/15 01:56:24;;;;;;;6.35;4.10;;;11.00;19.60;;;;;;5119586;28;20390;-59
2023/04/15 01:58:50;;;;;;;5.45;3.95;;;11.00;20.30;;;;;;5119131;28;20024;-59
2023/04/15 02:01:18;;;;;;;7.55;4.38;;;11.00;23.40;;;;;;5119798;28;20371;-59
2023/04/15 02:03:45;;;;;;;8.82;4.80;;;10.90;24.60;;;;;;5119048;28;20035;-59
2023/04/15 02:06:11;;;;;;;6.43;4.57;;;11.00;24.20;;;;;;5119082;28;20303;-59
2023/04/15 02:08:37;;;;;;;6.75;4.13;;;10.90;26.80;;;;;;5119205;28;20153;-59
2023/04/15 02:11:06;;;;;;;5.70;4.00;;;10.90;17.90;;;;;;5102031;28;20031;-59
2023/04/15 02:13:32;;;;;;;7.85;4.15;;;10.90;17.40;;;;;;5117997;28;20023;-59
2023/04/15 02:15:58;;;;;;;6.78;4.35;;;10.90;21.60;;;;;;5118075;28;20024;-59
2023/04/15 02:18:24;;;;;;;5.60;4.10;;;10.90;22.60;;;;;;5117993;28;20034;-59
2023/04/15 02:20:51;;;;;;;6.63;4.38;;;10.90;20.70;;;;;;5118103;28;20031;-59
2023/04/15 02:23:17;;;;;;;4.78;3.72;;;10.90;20.30;;;;;;5117851;28;20028;-59
2023/04/15 02:25:43;;;;;;;5.88;3.60;;;10.90;18.30;;;;;;5118476;28;20100;-59
2023/04/15 02:28:08;;;;;;;6.75;4.40;;;10.80;18.20;;;;;;5117915;28;20373;-59
2023/04/15 02:30:35;;;;;;;8.65;4.40;;;10.80;24.00;;;;;;5117953;28;20039;-59
2023/04/15 02:33:02;;;;;;;6.50;4.07;;;10.70;28.40;;;;;;5117711;28;20126;-59
2023/04/15 02:35:27;;;;;;;6.63;4.15;;;10.80;29.40;;;;;;5118509;28;20015;-59
2023/04/15 02:37:54;;;;;;;7.32;4.00;;;10.80;22.80;;;;;;5118897;28;20133;-59
2023/04/15 02:40:20;;;;;;;8.98;4.15;;;10.90;17.90;;;;;;5117618;28;20032;-59
2023/04/15 02:42:46;;;;;;;7.15;4.05;;;10.80;17.20;;;;;;5118225;28;20322;-59
2023/04/15 02:45:15;;;;;;;7.93;3.70;;;10.80;14.80;;;;;;5118910;28;20028;-59
2023/04/15 02:47:43;;;;;;;6.40;3.67;;;10.80;2.80;;;;;;5084153;28;20032;-60
2023/04/15 02:50:11;;;;;;;6.88;4.00;;;10.70;13.30;;;;;;5117395;28;20036;-59
2023/04/15 02:52:41;;;;;;;7.57;3.92;;;10.70;19.10;;;;;;5117474;28;20028;-58
2023/04/15 02:55:08;;;;;;;6.47;3.42;;;10.70;19.80;;;;;;5117292;28;20275;-58
2023/04/15 02:57:37;;;;;;;8.55;4.10;;;10.80;22.50;;;;;;5117247;28;20024;-59
2023/04/15 03:00:08;;;;;;;6.32;3.72;;;10.70;17.80;;;;;;5117259;28;20032;-59
2023/04/15 03:02:37;;;;;;;6.68;3.67;;;10.50;28.60;;;;;;5117156;28;20036;-61
2023/04/15 03:05:04;;;;;;;8.10;3.75;;;10.50;32.20;;;;;;5117967;28;20037;-59
2023/04/15 03:07:31;;;;;;;7.07;4.20;;;10.60;28.20;;;;;;5117764;28;20298;-59
2023/04/15 03:09:56;;;;;;;8.35;3.92;;;10.60;26.40;;;;;;5117083;28;20028;-59
2023/04/15 03:12:23;;;;;;;7.95;3.63;;;10.60;33.70;;;;;;5100294;28;20038;-59
2023/04/15 03:14:50;;;;;;;8.80;4.18;;;10.60;37.70;;;;;;5100298;28;20027;-59
2023/04/15 03:17:17;;;;;;;7.45;3.70;;;10.60;37.20;;;;;;5117119;28;20088;-59
2023/04/15 03:19:44;;;;;;;4.88;3.70;;;10.60;32.00;;;;;;5116996;28;20348;-59
2023/04/15 03:22:10;;;;;;;9.52;4.00;;;10.50;46.10;;;;;;5116937;28;20032;-59
2023/04/15 03:24:36;;;;;;;6.68;3.92;;;10.50;46.80;;;;;;5117674;28;20051;-59
2023/04/15 03:27:02;;;;;;;7.10;3.85;;;10.50;44.40;;;;;;5117224;28;20413;-59
2023/04/15 03:29:28;;;;;;;7.20;3.97;;;10.50;34.00;;;;;;5099899;28;20287;-60
2023/04/15 03:31:54;;;;;;;6.00;4.07;;;10.60;28.00;;;;;;5117516;28;20092;-59
2023/04/15 03:34:20;;;;;;;9.93;4.20;;;10.40;34.70;;;;;;5116674;28;20371;-59
2023/04/15 03:36:46;;;;;;;6.03;3.67;;;10.30;49.90;;;;;;5117321;28;20098;-59
2023/04/15 03:39:12;;;;;;;6.80;4.25;;;10.30;51.20;;;;;;5117216;28;20058;-59
2023/04/15 03:41:37;;;;;;;9.35;4.63;;;10.30;50.10;;;;;;5117258;28;20032;-59
2023/04/15 03:44:03;;;;;;;7.75;4.15;;;10.30;50.70;;;;;;5116840;28;20032;-59
2023/04/15 03:46:29;;;;;;;8.95;3.88;;;10.10;40.30;;;;;;5117290;28;20042;-59
2023/04/15 03:48:55;;;;;;;8.90;4.07;;;10.10;57.70;;;;;;5116631;28;20097;-59
2023/04/15 03:51:21;;;;;;;5.60;4.00;;;10.10;58.90;;;;;;5117942;28;20031;-59
2023/04/15 03:53:46;;;;;;;9.40;4.50;;;10.10;61.70;;;;;;5117195;28;20035;-59
2023/04/15 03:56:12;;;;;;;9.25;3.97;;;10.20;56.10;;;;;;5117748;28;20077;-59
2023/04/15 03:58:38;;;;;;;6.93;4.00;;;10.20;50.40;;;;;;5117385;28;20051;-60
2023/04/15 04:01:04;;;;;;;6.60;3.88;;;10.30;36.40;;;;;;5117246;28;20027;-59
2023/04/15 04:03:30;;;;;;;8.27;4.30;;;10.20;47.60;;;;;;5117195;28;20399;-60
2023/04/15 04:05:56;;;;;;;7.43;4.10;;;10.20;54.00;;;;;;5117853;28;20082;-59
2023/04/15 04:08:22;;;;;;;7.53;3.97;;;10.20;58.60;;;;;;5117163;28;20112;-59
2023/04/15 04:10:48;;;;;;;7.78;4.25;;;10.10;56.70;;;;;;5116759;28;20122;-60
2023/04/15 04:13:13;;;;;;;5.50;4.00;;;10.10;61.90;;;;;;5117015;28;20062;-60
2023/04/15 04:15:39;;;;;;;7.05;3.85;;;10.10;64.80;;;;;;5117687;28;20031;-60
2023/04/15 04:18:05;;;;;;;7.40;4.40;;;10.10;65.10;;;;;;5117116;28;20328;-60
2023/04/15 04:20:31;;;;;;;6.57;4.13;;;10.10;63.60;;;;;;5117054;28;20024;-60
2023/04/15 04:22:57;;;;;;;9.65;4.70;;;10.00;61.00;;;;;;5117072;28;20027;-60
2023/04/15 04:25:23;;;;;;;6.47;4.00;;;10.10;65.30;;;;;;5116911;28;20068;-60
2023/04/15 04:27:49;;;;;;;5.35;4.32;;;10.20;64.80;;;;;;5116949;28;20051;-59
2023/04/15 04:30:15;;;;;;;8.10;4.45;;;10.20;58.50;;;;;;5116966;28;20406;-60
2023/04/15 04:32:41;;;;;;;8.60;4.43;;;10.20;63.70;;;;;;5117280;28;20043;-59
2023/04/15 04:35:07;;;;;;;6.75;4.63;;;10.30;66.30;;;;;;5117501;28;20024;-59
2023/04/15 04:37:33;;;;;;;8.07;4.70;;;10.30;58.90;;;;;;5116969;28;20063;-59
2023/04/15 04:39:59;;;;;;;8.38;5.30;;;10.20;60.50;;;;;;5116914;28;20063;-59
2023/04/15 04:42:25;;;;;;;9.90;5.00;;;10.10;64.30;;;;;;5116666;28;20330;-60
2023/04/15 04:44:51;;;;;;;8.15;4.50;;;10.20;59.10;;;;;;5116803;28;20020;-59
2023/04/15 04:47:17;;;;;;;8.77;5.47;;;10.20;55.50;;;;;;5116808;28;20081;-60
2023/04/15 04:49:43;;;;;;;8.27;5.53;;;10.10;58.30;;;;;;5116616;28;20031;-59
2023/04/15 04:52:09;;;;;;;7.70;4.50;;;9.80;68.30;;;;;;5120967;28;20130;-60
2023/04/15 04:54:35;;;;;;;9.50;5.03;;;9.90;73.80;;;;;;5120425;28;20092;-58
2023/04/15 04:57:01;;;;;;;9.80;5.32;;;9.90;76.90;;;;;;5119513;28;20031;-59
2023/04/15 04:59:27;;;;;;;8.40;5.00;;;9.90;68.10;;;;;;5119722;28;20402;-59
2023/04/15 05:01:52;;;;;;;11.18;5.38;;;10.00;73.90;;;;;;5120617;28;20050;-59
2023/04/15 05:04:18;;;;;;;11.75;5.47;;;9.90;67.20;;;;;;5102594;28;20031;-58
2023/04/15 05:06:44;;;;;;;13.35;5.90;;;10.10;65.90;;;;;;5119433;28;20027;-59
2023/04/15 05:09:10;;;;;;;7.60;5.55;;;10.10;64.00;;;;;;5119462;28;20027;-59
2023/04/15 05:11:36;;;;;;;9.55;5.70;;;10.20;70.70;;;;;;5120637;28;20084;-58
2023/04/15 05:14:02;;;;;;;7.93;5.55;;;10.20;66.90;;;;;;5119984;28;20093;-59
2023/04/15 05:16:28;;;;;;;12.57;5.85;;;10.20;66.50;;;;;;5119391;28;20434;-59
2023/04/15 05:18:53;;;;;;;6.43;5.60;;;10.30;62.80;;;;;;5119136;28;20330;-59
2023/04/15 05:21:20;;;;;;;9.40;5.75;;;10.30;61.70;;;;;;5118896;28;20028;-59
2023/04/15 05:23:46;;;;;;;9.32;5.65;;;10.40;57.90;;;;;;5119724;28;20032;-59
2023/04/15 05:26:12;;;;;;;10.20;5.70;;;10.40;57.10;;;;;;5120356;28;20032;-59
2023/04/15 05:28:37;;;;;;;8.95;5.95;;;10.40;52.60;;;;;;5119663;28;20031;-59
2023/04/15 05:31:03;;;;;;;7.97;5.60;;;10.40;51.10;;;;;;5119613;28;20027;-59
2023/04/15 05:33:29;;;;;;;10.52;6.43;;;10.40;51.80;;;;;;5118931;28;20028;-59
2023/04/15 05:35:55;;;;;;;9.82;6.10;;;10.40;50.40;;;;;;5118957;28;20099;-59
2023/04/15 05:38:21;;;;;;;9.82;6.22;;;10.50;53.90;;;;;;5118859;28;20039;-59
2023/04/15 05:40:47;;;;;;;11.68;6.43;;;10.50;48.60;;;;;;5101755;28;20028;-59
2023/04/15 05:43:12;;;;;;;12.98;6.95;;;10.60;43.70;;;;;;5119222;28;20140;-59
2023/04/15 05:45:38;;;;;;;11.77;6.30;;;10.60;46.40;;;;;;5119350;28;20073;-59
2023/04/15 05:48:04;;;;;;;8.48;6.03;;;10.60;41.80;;;;;;5119412;28;20362;-58
2023/04/15 05:50:30;;;;;;;8.77;6.82;;;10.70;44.90;;;;;;5119300;28;20043;-58
2023/04/15 05:52:55;;;;;;;13.95;7.78;;;10.70;32.00;;;;;;5118752;28;20318;-58
2023/04/15 05:55:21;;;;;;;8.93;7.22;;;10.70;31.30;;;;;;5119216;28;20391;-58
2023/04/15 05:57:47;;;;;;;12.18;7.18;;;10.80;26.50;;;;;;5119168;28;20422;-59
2023/04/15 06:00:14;;;;;;;10.30;7.78;;;10.70;32.20;;;;;;5119159;28;20020;-59
2023/04/15 06:02:40;;;;;;;9.25;7.18;;;10.70;28.70;;;;;;5119019;28;20028;-59
2023/04/15 06:05:08;;;;;;;10.02;7.53;;;10.70;27.60;;;;;;5119245;28;20031;-61
2023/04/15 06:07:35;;;;;;;11.93;8.27;;;10.70;28.70;;;;;;5119035;28;20378;-59
2023/04/15 06:10:02;;;;;;;10.52;8.13;;;10.80;29.00;;;;;;5118896;28;20111;-58
2023/04/15 06:12:28;;;;;;;15.63;9.20;;;10.90;25.10;;;;;;5118542;28;20039;-58
2023/04/15 06:14:54;;;;;;;13.57;9.18;;;10.80;17.70;;;;;;5119278;28;20027;-58
2023/04/15 06:17:20;;;;;;;14.27;9.05;;;11.00;10.60;;;;;;5118791;28;20020;-59
2023/04/15 06:19:46;;;;;;;14.02;10.05;;;11.00;4.70;;;;;;5118710;28;20055;-59
2023/04/15 06:22:11;;;;;;;12.93;8.90;;;11.00;1.00;;;;;;5119255;28;20085;-58
2023/04/15 06:24:37;;;;;;;10.68;9.57;;;11.10;1.00;;;;;;5118658;28;20039;-58
2023/04/15 06:27:03;;;;;;;12.75;10.02;;;11.20;1.00;;;;;;5117889;28;20036;-59
2023/04/15 06:29:29;;;;;;;13.90;9.52;;;11.30;1.00;;;;;;5118074;28;20107;-59
2023/04/15 06:31:55;;;;;;;15.23;10.32;;;11.30;1.00;;;;;;5118548;28;20417;-58
2023/04/15 06:34:21;;;;;;;13.00;10.65;;;11.30;1.00;;;;;;5118283;28;20351;-59
2023/04/15 06:36:47;;;;;;;14.20;9.75;;;11.30;1.00;;;;;;5118273;28;20111;-58
2023/04/15 06:39:13;;;;;;;25.52;11.30;;;11.20;1.00;;;;;;5118363;28;20069;-59
2023/04/15 06:41:39;;;;;;;14.85;10.65;;;11.20;1.00;;;;;;5118125;28;20387;-63
2023/04/15 06:44:06;;;;;;;17.35;11.20;;;11.20;1.00;;;;;;5118433;28;20047;-59
2023/04/15 06:46:32;;;;;;;17.83;10.85;;;11.20;1.00;;;;;;5118287;28;20062;-58
2023/04/15 06:48:58;;;;;;;17.02;11.07;;;11.40;1.00;;;;;;5118360;28;20051;-58
2023/04/15 06:51:23;;;;;;;15.02;11.02;;;11.50;1.00;;;;;;5117459;28;20046;-58
2023/04/15 06:53:49;;;;;;;12.18;10.60;;;11.50;1.00;;;;;;5118052;28;20383;-59
2023/04/15 06:56:15;;;;;;;13.90;10.68;;;11.60;1.00;;;;;;5118067;28;20039;-60
2023/04/15 06:58:41;;;;;;;13.15;10.35;;;11.70;1.00;;;;;;5117911;28;20041;-59
2023/04/15 07:01:06;;;;;;;14.93;10.45;;;11.60;1.00;;;;;;5117265;28;20053;-59
2023/04/15 07:03:32;;;;;;;16.63;10.80;;;11.40;1.00;;;;;;5117982;28;20039;-59
2023/04/15 07:05:58;;;;;;;12.23;10.50;;;11.40;1.00;;;;;;5117871;28;20043;-58
2023/04/15 07:08:24;;;;;;;18.42;11.70;;;11.30;1.00;;;;;;5117908;28;20306;-57
2023/04/15 07:10:50;;;;;;;13.50;10.45;;;11.30;1.00;;;;;;5118125;28;20110;-63
2023/04/15 07:13:16;;;;;;;14.85;10.30;;;11.30;1.00;;;;;;5117646;28;20043;-58
2023/04/15 07:15:42;;;;;;;16.00;10.63;;;11.20;1.00;;;;;;5117906;28;20276;-58
2023/04/15 07:18:08;;;;;;;14.68;9.95;;;11.10;1.00;;;;;;5117822;28;20028;-58
2023/04/15 07:20:34;;;;;;;15.82;10.32;;;11.20;1.00;;;;;;5117621;28;20035;-58
2023/04/15 07:23:00;;;;;;;14.77;10.20;;;11.20;1.00;;;;;;5117158;28;20448;-58
2023/04/15 07:25:26;;;;;;;16.90;10.00;;;11.40;1.00;;;;;;5117501;28;20031;-59
2023/04/15 07:27:53;;;;;;;14.65;9.50;;;11.60;1.00;;;;;;5116897;28;20027;-58
2023/04/15 07:30:21;;;;;;;12.73;9.88;;;11.70;1.00;;;;;;5117460;28;20035;-58
2023/04/15 07:32:47;;;;;;;14.20;9.95;;;11.90;1.00;;;;;;5099785;28;20037;-59
2023/04/15 07:35:13;;;;;;;12.15;9.40;;;11.70;1.00;;;;;;5116570;28;20028;-59
2023/04/15 07:37:39;;;;;;;12.02;9.30;;;11.80;1.00;;;;;;5117115;28;20399;-59
2023/04/15 07:40:06;;;;;;;13.77;8.93;;;12.00;1.00;;;;;;5117173;28;20031;-58
2023/04/15 07:42:33;;;;;;;11.82;9.05;;;12.10;1.00;;;;;;5116257;28;20066;-59
2023/04/15 07:44:59;;;;;;;10.00;8.02;;;12.00;1.00;;;;;;5117371;28;20023;-59
2023/04/15 07:47:25;;;;;;;10.63;8.02;;;12.00;1.00;;;;;;5117776;28;20035;-59
2023/04/15 07:49:52;;;;;;;12.82;8.23;;;12.00;1.00;;;;;;5117175;28;20023;-59
2023/04/15 07:52:18;;;;;;;10.63;7.47;;;12.00;1.00;;;;;;5117229;28;20032;-60
2023/04/15 07:54:44;;;;;;;9.07;7.50;;;12.20;1.00;;;;;;5116444;28;20036;-59
2023/04/15 07:57:10;;;;;;;10.48;7.60;;;12.40;1.00;;;;;;5100283;28;20047;-59
2023/04/15 07:59:35;;;;;;;9.88;7.63;;;12.60;1.00;;;;;;5117198;28;20086;-59
2023/04/15 08:02:02;;;;;;;12.13;7.65;;;12.60;1.00;;;;;;5117120;28;20024;-59
2023/04/15 08:04:27;;;;;;;11.65;7.63;;;12.60;1.00;;;;;;5117185;28;20063;-60
2023/04/15 08:06:53;;;;;;;9.57;6.85;;;12.70;1.00;;;;;;5116390;28;20065;-60
2023/04/15 08:09:20;;;;;;;12.73;7.60;;;12.90;1.00;;;;;;5117102;28;20032;-59
2023/04/15 08:11:48;;;;;;;14.30;7.10;;;13.10;1.00;;;;;;5117039;28;20100;-59
2023/04/15 08:14:14;;;;;;;9.45;7.03;;;13.30;1.00;;;;;;5116983;28;20040;-59
2023/04/15 08:16:40;;;;;;;9.55;6.80;;;13.40;1.00;;;;;;5116969;28;20299;-59
2023/04/15 08:19:06;;;;;;;9.05;6.70;;;13.50;1.00;;;;;;5117028;28;20280;-59
2023/04/15 08:21:32;;;;;;;10.50;7.28;;;13.50;1.00;;;;;;5116240;28;20036;-59
2023/04/15 08:23:57;;;;;;;9.80;6.85;;;13.50;1.00;;;;;;5116243;28;20344;-60
2023/04/15 08:26:23;;;;;;;7.82;6.40;;;13.60;1.00;;;;;;5119619;28;20031;-60
2023/04/15 08:28:50;;;;;;;8.23;6.72;;;13.60;1.00;;;;;;5120904;28;20043;-61
2023/04/15 08:31:16;;;;;;;9.35;7.22;;;13.60;1.00;;;;;;5120762;28;20043;-61
2023/04/15 08:33:42;;;;;;;10.90;7.20;;;13.60;1.00;;;;;;5119903;28;20031;-61
2023/04/15 08:36:08;;;;;;;8.73;7.18;;;13.70;1.00;;;;;;5120760;28;20031;-61
2023/04/15 08:38:36;;;;;;;7.60;6.25;;;14.00;1.00;;;;;;5119946;28;20298;-63
2023/04/15 08:41:06;;;;;;;8.38;6.28;;;14.30;1.00;;;;;;5120553;28;20035;-62
2023/04/15 08:43:42;;;;;;;8.23;5.75;;;14.20;1.00;;;;;;5120448;28;20428;-62
2023/04/15 08:46:09;;;;;;;7.57;6.30;;;14.10;1.00;;;;;;5119694;28;20291;-62
2023/04/15 08:48:39;;;;;;;9.15;6.60;;;14.10;1.00;;;;;;5120445;28;20031;-62
2023/04/15 08:51:06;;;;;;;8.13;6.03;;;14.20;1.00;;;;;;5120466;28;20027;-59
2023/04/15 08:53:32;;;;;;;7.95;6.55;;;14.20;1.00;;;;;;5120214;28;20237;-61
2023/04/15 08:56:03;;;;;;;7.90;6.70;;;14.50;1.00;;;;;;5119617;28;20069;-60
2023/04/15 08:58:29;;;;;;;7.20;6.22;;;14.50;1.00;;;;;;5120345;28;20019;-60
2023/04/15 09:00:56;;;;;;;6.43;5.85;;;14.60;1.00;;;;;;5120344;28;20027;-60
2023/04/15 09:03:22;;;;;;;7.63;6.03;;;14.40;1.00;;;;;;5120205;28;20036;-61
2023/04/15 09:05:49;;;;;;;7.28;6.28;;;14.40;1.00;;;;;;5120175;28;20366;-61
2023/04/15 09:08:15;;;;;;;8.63;5.95;;;14.50;1.00;;;;;;5120265;28;20097;-60
2023/04/15 09:10:41;;;;;;;6.47;5.80;;;14.60;1.00;;;;;;5120207;28;20082;-60
2023/04/15 09:13:08;;;;;;;7.65;5.90;;;14.60;1.00;;;;;;5119067;28;20092;-60
2023/04/15 09:15:37;;;;;;;7.53;5.43;;;14.30;1.00;;;;;;5120223;28;20032;-60
2023/04/15 09:18:04;;;;;;;6.85;5.93;;;14.20;1.00;;;;;;5119010;28;20031;-61
2023/04/15 09:20:41;;;;;;;6.15;5.20;;;14.50;1.00;;;;;;5119830;28;20024;-61
2023/04/15 09:23:16;;;;;;;5.70;5.20;;;14.70;1.00;;;;;;5120154;28;20051;-63
2023/04/15 09:25:42;;;;;;;6.32;5.07;;;15.00;1.00;;;;;;5119822;28;20093;-62
2023/04/15 09:28:08;;;;;;;4.80;4.40;;;15.00;1.00;;;;;;5119040;28;20035;-61
2023/04/15 09:30:34;;;;;;;6.10;4.75;;;15.10;1.00;;;;;;5119767;28;20034;-62
2023/04/15 09:33:03;;;;;;;5.88;4.50;;;15.00;1.00;;;;;;5119533;28;20114;-63
2023/04/15 09:35:29;;;;;;;4.95;4.40;;;14.90;99.90;;;;;;5118606;28;20081;-62
2023/04/15 09:38:09;;;;;;;6.20;4.80;;;14.70;99.90;;;;;;5119577;28;20052;-61
2023/04/15 09:40:40;;;;;;;5.75;4.22;;;14.70;99.90;;;;;;5119796;28;20106;-61
2023/04/15 09:43:09;;;;;;;5.93;4.00;;;14.70;99.90;;;;;;5119581;28;20379;-62
2023/04/15 09:45:35;;;;;;;6.20;4.25;;;14.80;99.90;;;;;;5119492;28;20035;-61
2023/04/15 09:48:25;;;;;;;5.75;3.97;;;14.90;99.90;;;;;;5119408;28;20027;-61
2023/04/15 09:50:56;;;;;;;6.18;3.72;;;14.90;99.90;;;;;;5119248;28;20043;-61
2023/04/15 09:53:23;;;;;;;4.97;3.35;;;14.90;99.90;;;;;;5119675;28;20395;-61
2023/04/15 09:55:51;;;;;;;4.65;3.50;;;15.10;99.90;;;;;;5119533;28;20414;-62
2023/04/15 09:58:25;;;;;;;6.05;3.75;;;15.10;99.90;;;;;;5119489;28;20069;-63
2023/04/15 10:00:52;;;;;;;3.75;3.15;;;15.00;99.90;;;;;;5119137;28;20023;-62
2023/04/15 10:03:21;;;;;;;4.35;3.70;;;15.20;1.00;;;;;;5119048;28;20039;-61
2023/04/15 10:05:49;;;;;;;5.45;3.55;;;15.20;49.70;;;;;;5118744;28;20039;-61
2023/04/15 10:08:20;;;;;;;6.20;3.50;;;15.30;99.90;;;;;;5118229;28;20153;-64
2023/04/15 10:10:47;;;;;;;3.85;3.45;;;15.50;99.90;;;;;;5119207;28;20036;-62
2023/04/15 10:13:18;;;;;;;4.82;3.45;;;15.40;1.00;;;;;;5118692;28;20035;-62
2023/04/15 10:15:54;;;;;;;4.60;3.60;;;15.50;1.00;;;;;;5118774;28;20031;-60
2023/04/15 10:18:24;;;;;;;3.90;3.58;;;15.60;1.00;;;;;;5118837;28;20157;-61
2023/04/15 10:20:50;;;;;;;6.07;3.47;;;15.50;99.90;;;;;;5119176;28;20031;-61
2023/04/15 10:23:17;;;;;;;3.97;2.67;;;15.70;1.00;;;;;;5118593;28;20044;-60
2023/04/15 10:25:46;;;;;;;4.40;2.90;;;15.70;1.00;;;;;;5118582;28;20398;-63
2023/04/15 10:28:13;;;;;;;3.45;3.00;;;15.80;99.90;;;;;;5118503;28;20024;-64
2023/04/15 10:30:39;;;;;;;3.78;2.97;;;15.70;8.10;;;;;;5118541;28;20023;-61
2023/04/15 10:33:05;;;;;;;4.53;3.30;;;15.70;99.90;;;;;;5117592;28;20038;-61
2023/04/15 10:35:35;;;;;;;6.47;3.67;;;16.00;99.90;;;;;;5118376;28;20027;-62
2023/04/15 10:38:01;;;;;;;4.60;3.38;;;16.30;99.90;;;;;;5100936;28;20295;-61
2023/04/15 10:40:31;;;;;;;4.65;3.65;;;16.30;1.00;;;;;;5118697;28;20028;-61
2023/04/15 10:42:58;;;;;;;3.70;3.00;;;16.10;99.90;;;;;;5118051;28;20052;-60
2023/04/15 10:45:31;;;;;;;6.78;3.42;;;16.80;1.00;;;;;;5117849;28;20290;-61
2023/04/15 10:48:00;;;;;;;5.13;3.75;;;17.70;99.90;;;;;;5118106;28;20495;-61
2023/04/15 10:50:29;;;;;;;3.38;3.08;;;18.80;99.90;;;;;;5117951;28;20364;-61
2023/04/15 10:52:55;;;;;;;4.82;2.95;;;19.60;99.90;;;;;;5118118;28;20294;-61
2023/04/15 10:55:26;;;;;;;3.03;2.40;;;19.70;1.00;;;;;;5118499;28;20015;-61
2023/04/15 10:57:53;;;;;;;3.10;2.45;;;19.30;99.90;;;;;;5118334;28;20340;-61
2023/04/15 11:00:24;;;;;;;2.88;2.67;;;19.90;99.90;;;;;;5117939;28;20388;-60
2023/04/15 11:02:56;;;;;;;3.97;2.25;;;19.90;99.90;;;;;;5117871;28;20036;-61
2023/04/15 11:05:38;;;;;;;2.87;2.57;;;20.20;99.90;;;;;;5117707;28;20042;-61
2023/04/15 11:08:04;;;;;;;3.28;2.92;;;19.20;99.90;;;;;;5118023;28;20027;-61
2023/04/15 11:10:30;;;;;;;3.47;3.13;;;20.40;99.90;;;;;;5117657;28;20399;-60
2023/04/15 11:13:04;;;;;;;4.70;2.90;;;21.30;99.90;;;;;;5116813;28;20271;-60
2023/04/15 11:15:46;;;;;;;3.40;3.10;;;21.90;1.00;;;;;;5117684;28;20047;-61
2023/04/15 11:18:13;;;;;;;3.80;2.90;;;22.70;1.00;;;;;;5117910;28;20062;-62
2023/04/15 11:20:44;;;;;;;4.28;2.40;;;22.80;1.00;;;;;;5117614;28;20022;-61
2023/04/15 11:23:11;;;;;;;3.95;2.70;;;23.60;1.00;;;;;;5116805;28;20028;-61
2023/04/15 11:25:37;;;;;;;4.10;2.50;;;23.30;1.00;;;;;;5118019;28;20374;-60
2023/04/15 11:28:03;;;;;;;2.78;2.25;;;23.60;1.00;;;;;;5117338;28;20042;-58
2023/04/15 11:30:32;;;;;;;3.40;2.20;;;22.50;1.00;;;;;;5117426;28;20035;-60
2023/04/15 11:33:03;;;;;;;2.63;2.42;;;22.60;1.00;;;;;;5117703;28;20031;-62
2023/04/15 11:35:30;;;;;;;3.72;3.10;;;22.00;1.00;;;;;;5116644;28;20088;-61
2023/04/15 11:37:56;;;;;;;3.90;2.90;;;21.80;1.00;;;;;;5117428;28;20036;-62
2023/04/15 11:40:24;;;;;;;3.15;1.88;;;22.10;1.00;;;;;;5117304;28;20314;-60
2023/04/15 11:43:10;;;;;;;2.08;1.40;;;21.80;1.00;;;;;;5116473;28;20056;-60
2023/04/15 11:45:37;;;;;;;2.85;1.50;;;21.90;1.00;;;;;;5116951;28;20031;-60
2023/04/15 11:48:12;;;;;;;3.95;2.10;;;22.50;1.00;;;;;;5116510;28;20024;-61
2023/04/15 11:50:41;;;;;;;2.97;2.08;;;22.40;1.00;;;;;;5116462;28;20038;-60
2023/04/15 11:53:08;;;;;;;5.22;2.15;;;22.60;1.00;;;;;;5117250;28;20110;-61
2023/04/15 11:55:49;;;;;;;2.80;2.03;;;22.50;1.00;;;;;;5116548;28;20092;-61
2023/04/15 11:58:19;;;;;;;2.55;1.70;;;24.10;1.00;;;;;;5117100;28;20030;-61
2023/04/15 12:00:57;;;;;;;3.28;1.83;;;26.20;1.00;;;;;;5120754;28;20399;-61
2023/04/15 12:03:26;;;;;;;2.17;1.98;;;25.00;99.90;;;;;;5121523;28;20032;-61
2023/04/15 12:06:18;;;;;;;3.55;2.55;;;25.70;99.90;;;;;;5121484;28;20024;-63
2023/04/15 12:09:02;;;;;;;5.47;2.63;;;25.60;99.90;;;;;;5121435;28;20043;-64
2023/04/15 12:11:48;;;;;;;2.80;2.50;;;26.50;99.90;;;;;;5120625;28;20401;-61
2023/04/15 12:14:32;;;;;;;4.22;2.60;;;26.10;99.90;;;;;;5121193;28;20032;-61
2023/04/15 12:17:01;;;;;;;3.42;2.40;;;26.40;99.90;;;;;;5121443;28;20027;-61
2023/04/15 12:19:29;;;;;;;2.95;2.60;;;26.20;99.90;;;;;;5121743;28;20047;-63
2023/04/15 12:22:00;;;;;;;3.17;2.40;;;25.80;99.90;;;;;;5120457;28;20040;-63
2023/04/15 12:24:26;;;;;;;3.03;2.13;;;25.70;99.90;;;;;;5121120;28;20479;-63
2023/04/15 12:26:56;;;;;;;3.42;1.92;;;26.20;99.90;;;;;;5121173;28;20055;-63
2023/04/15 12:29:27;;;;;;;3.22;2.05;;;27.10;99.90;;;;;;5120927;28;20127;-63
2023/04/15 12:31:58;;;;;;;2.88;2.15;;;27.90;99.90;;;;;;5120982;28;20298;-64
2023/04/15 12:34:32;;;;;;;4.82;2.22;;;28.10;99.90;;;;;;5120208;28;20299;-63
2023/04/15 12:37:00;;;;;;;6.32;1.90;;;26.90;99.90;;;;;;5120071;28;20399;-64
2023/04/15 12:39:28;;;;;;;4.07;1.70;;;27.20;99.90;;;;;;5120605;28;20297;-64
2023/04/15 12:41:54;;;;;;;3.80;1.60;;;27.90;99.90;;;;;;5120561;28;20378;-64
2023/04/15 12:44:22;;;;;;;3.63;2.20;;;27.60;99.90;;;;;;5120701;28;20032;-63
2023/04/15 12:46:49;;;;;;;4.70;2.13;;;27.40;99.90;;;;;;5120492;28;20059;-64
2023/04/15 12:49:18;;;;;;;1.67;1.58;;;27.50;99.90;;;;;;5120615;28;20077;-64